sensor_id;sensor_type;location;lat;lon;timestamp;P1;durP1;ratioP1;P2;durP2;ratioP2
44662;SDS011;30381;52.754;18.258;2023-08-31T10:19:50;11.60;;;7.60;;
44662;SDS011;30381;52.754;18.258;2023-08-31T10:28:26;18.20;;;11.50;;
44662;SDS011;30381;52.754;18.258;2023-08-31T10:31:01;14.20;;;10.30;;
44662;SDS011;30381;52.754;18.258;2023-08-31T10:34:02;15.50;;;9.80;;
44662;SDS011;30381;52.754;18.258;2023-08-31T10:36:41;24.10;;;12.40;;
44662;SDS011;30381;52.754;18.258;2023-08-31T10:42:41;14.80;;;10.20;;
44662;SDS011;30381;52.754;18.258;2023-08-31T10:45:20;21.10;;;12.80;;
44662;SDS011;30381;52.754;18.258;2023-08-31T10:47:49;15.40;;;8.70;;
44662;SDS011;30381;52.754;18.258;2023-08-31T10:52:44;13.80;;;6.70;;
44662;SDS011;30381;52.754;18.258;2023-08-31T10:55:12;14.10;;;8.00;;
44662;SDS011;30381;52.754;18.258;2023-08-31T10:57:40;14.00;;;8.20;;
44662;SDS011;30381;52.754;18.258;2023-08-31T11:00:08;16.70;;;9.80;;
44662;SDS011;30381;52.754;18.258;2023-08-31T11:02:35;14.80;;;10.10;;
44662;SDS011;30381;52.754;18.258;2023-08-31T11:07:34;11.80;;;8.40;;
44662;SDS011;30381;52.754;18.258;2023-08-31T11:10:09;13.80;;;9.30;;
44662;SDS011;30381;52.754;18.258;2023-08-31T11:12:48;11.80;;;9.60;;
44662;SDS011;30381;52.754;18.258;2023-08-31T11:15:19;11.40;;;8.30;;
44662;SDS011;30381;52.754;18.258;2023-08-31T11:17:49;14.50;;;8.50;;
44662;SDS011;30381;52.754;18.258;2023-08-31T11:20:18;14.00;;;8.40;;
44662;SDS011;30381;52.754;18.258;2023-08-31T11:22:50;11.40;;;7.80;;
44662;SDS011;30381;52.754;18.258;2023-08-31T11:25:21;10.40;;;7.70;;
44662;SDS011;30381;52.754;18.258;2023-08-31T11:30:38;10.80;;;7.80;;
44662;SDS011;30381;52.754;18.258;2023-08-31T11:33:06;10.80;;;7.70;;
44662;SDS011;30381;52.754;18.258;2023-08-31T11:35:46;13.40;;;8.90;;
44662;SDS011;30381;52.754;18.258;2023-08-31T11:38:38;12.00;;;8.40;;
44662;SDS011;30381;52.754;18.258;2023-08-31T11:41:19;12.20;;;9.50;;
44662;SDS011;30381;52.754;18.258;2023-08-31T11:43:50;13.90;;;9.40;;
44662;SDS011;30381;52.754;18.258;2023-08-31T11:46:19;12.70;;;7.80;;
44662;SDS011;30381;52.754;18.258;2023-08-31T11:49:01;11.80;;;7.60;;
44662;SDS011;30381;52.754;18.258;2023-08-31T11:51:56;11.60;;;8.10;;
44662;SDS011;30381;52.754;18.258;2023-08-31T11:54:43;10.60;;;6.50;;
44662;SDS011;30381;52.754;18.258;2023-08-31T11:57:25;8.20;;;5.50;;
44662;SDS011;30381;52.754;18.258;2023-08-31T12:00:23;8.50;;;4.70;;
44662;SDS011;30381;52.754;18.258;2023-08-31T12:03:14;7.10;;;4.30;;
44662;SDS011;30381;52.754;18.258;2023-08-31T12:06:41;8.60;;;4.60;;
44662;SDS011;30381;52.754;18.258;2023-08-31T12:09:52;9.70;;;4.80;;
44662;SDS011;30381;52.754;18.258;2023-08-31T12:13:10;8.40;;;5.00;;
44662;SDS011;30381;52.754;18.258;2023-08-31T12:16:19;8.10;;;4.50;;
44662;SDS011;30381;52.754;18.258;2023-08-31T12:19:45;9.60;;;4.10;;
44662;SDS011;30381;52.754;18.258;2023-08-31T12:23:02;9.30;;;3.80;;
44662;SDS011;30381;52.754;18.258;2023-08-31T12:26:32;7.90;;;3.30;;
44662;SDS011;30381;52.754;18.258;2023-08-31T12:30:05;8.70;;;3.20;;
44662;SDS011;30381;52.754;18.258;2023-08-31T12:33:01;8.80;;;3.80;;
44662;SDS011;30381;52.754;18.258;2023-08-31T12:39:57;8.10;;;3.40;;
44662;SDS011;30381;52.754;18.258;2023-08-31T12:42:41;11.20;;;4.00;;
44662;SDS011;30381;52.754;18.258;2023-08-31T12:49:33;9.80;;;3.90;;
44662;SDS011;30381;52.754;18.258;2023-08-31T12:52:56;9.00;;;3.90;;
44662;SDS011;30381;52.754;18.258;2023-08-31T12:56:08;10.90;;;7.10;;
44662;SDS011;30381;52.754;18.258;2023-08-31T12:59:01;13.90;;;7.60;;
44662;SDS011;30381;52.754;18.258;2023-08-31T13:01:57;10.30;;;5.40;;
44662;SDS011;30381;52.754;18.258;2023-08-31T13:05:01;7.20;;;4.00;;
44662;SDS011;30381;52.754;18.258;2023-08-31T13:07:54;10.00;;;4.70;;
44662;SDS011;30381;52.754;18.258;2023-08-31T13:10:51;8.60;;;5.00;;
44662;SDS011;30381;52.754;18.258;2023-08-31T13:13:22;11.20;;;6.10;;
44662;SDS011;30381;52.754;18.258;2023-08-31T13:15:56;11.80;;;5.60;;
44662;SDS011;30381;52.754;18.258;2023-08-31T13:18:53;12.30;;;6.30;;
44662;SDS011;30381;52.754;18.258;2023-08-31T13:21:35;10.30;;;6.20;;
44662;SDS011;30381;52.754;18.258;2023-08-31T13:24:29;10.90;;;5.40;;
44662;SDS011;30381;52.754;18.258;2023-08-31T13:27:55;11.80;;;6.90;;
44662;SDS011;30381;52.754;18.258;2023-08-31T13:51:47;10.10;;;5.70;;
44662;SDS011;30381;52.754;18.258;2023-08-31T14:00:12;11.20;;;6.40;;
44662;SDS011;30381;52.754;18.258;2023-08-31T14:03:31;13.20;;;7.30;;
44662;SDS011;30381;52.754;18.258;2023-08-31T14:06:03;12.00;;;6.00;;
44662;SDS011;30381;52.754;18.258;2023-08-31T14:08:30;10.30;;;6.40;;
44662;SDS011;30381;52.754;18.258;2023-08-31T14:11:04;12.80;;;6.90;;
44662;SDS011;30381;52.754;18.258;2023-08-31T14:13:43;12.30;;;7.40;;
44662;SDS011;30381;52.754;18.258;2023-08-31T14:16:19;11.10;;;6.40;;
44662;SDS011;30381;52.754;18.258;2023-08-31T14:22:24;11.00;;;5.90;;
44662;SDS011;30381;52.754;18.258;2023-08-31T14:55:06;13.00;;;4.80;;
44662;SDS011;30381;52.754;18.258;2023-08-31T15:16:54;9.30;;;3.50;;
44662;SDS011;30381;52.754;18.258;2023-08-31T15:28:31;6.50;;;3.20;;
44662;SDS011;30381;52.754;18.258;2023-08-31T21:10:56;11.90;;;7.10;;
44662;SDS011;30381;52.754;18.258;2023-08-31T21:13:23;13.80;;;7.10;;
44662;SDS011;30381;52.754;18.258;2023-08-31T21:15:58;12.00;;;6.60;;
44662;SDS011;30381;52.754;18.258;2023-08-31T21:18:41;13.20;;;6.90;;
44662;SDS011;30381;52.754;18.258;2023-08-31T21:21:54;11.70;;;6.80;;
44662;SDS011;30381;52.754;18.258;2023-08-31T21:24:37;12.30;;;6.60;;
44662;SDS011;30381;52.754;18.258;2023-08-31T21:27:26;11.20;;;6.90;;
44662;SDS011;30381;52.754;18.258;2023-08-31T21:30:09;12.60;;;6.90;;
44662;SDS011;30381;52.754;18.258;2023-08-31T21:32:55;11.40;;;7.00;;
44662;SDS011;30381;52.754;18.258;2023-08-31T21:35:26;15.70;;;7.50;;
44662;SDS011;30381;52.754;18.258;2023-08-31T21:41:52;13.20;;;6.80;;
44662;SDS011;30381;52.754;18.258;2023-08-31T21:44:22;13.30;;;6.80;;
44662;SDS011;30381;52.754;18.258;2023-08-31T21:47:00;10.90;;;7.10;;
44662;SDS011;30381;52.754;18.258;2023-08-31T21:50:11;13.10;;;7.30;;
44662;SDS011;30381;52.754;18.258;2023-08-31T21:53:36;13.70;;;7.50;;
44662;SDS011;30381;52.754;18.258;2023-08-31T21:56:59;12.40;;;7.40;;
44662;SDS011;30381;52.754;18.258;2023-08-31T21:59:28;13.70;;;7.30;;
44662;SDS011;30381;52.754;18.258;2023-08-31T22:02:12;14.30;;;8.00;;
44662;SDS011;30381;52.754;18.258;2023-08-31T22:04:54;12.80;;;7.10;;
44662;SDS011;30381;52.754;18.258;2023-08-31T22:07:55;13.70;;;7.70;;
44662;SDS011;30381;52.754;18.258;2023-08-31T22:10:41;15.50;;;7.60;;
44662;SDS011;30381;52.754;18.258;2023-08-31T22:13:41;14.90;;;7.90;;
44662;SDS011;30381;52.754;18.258;2023-08-31T22:16:32;14.80;;;7.80;;
44662;SDS011;30381;52.754;18.258;2023-08-31T22:19:42;16.00;;;8.30;;
44662;SDS011;30381;52.754;18.258;2023-08-31T22:22:22;13.80;;;7.30;;
44662;SDS011;30381;52.754;18.258;2023-08-31T22:24:57;17.60;;;8.40;;
44662;SDS011;30381;52.754;18.258;2023-08-31T22:27:56;14.80;;;9.40;;
44662;SDS011;30381;52.754;18.258;2023-08-31T22:30:45;13.40;;;8.20;;
44662;SDS011;30381;52.754;18.258;2023-08-31T22:33:32;15.00;;;8.90;;
44662;SDS011;30381;52.754;18.258;2023-08-31T22:36:12;15.70;;;8.60;;
44662;SDS011;30381;52.754;18.258;2023-08-31T22:38:49;15.60;;;9.30;;
44662;SDS011;30381;52.754;18.258;2023-08-31T22:41:23;12.80;;;8.60;;
44662;SDS011;30381;52.754;18.258;2023-08-31T22:44:18;15.00;;;8.80;;
44662;SDS011;30381;52.754;18.258;2023-08-31T22:47:12;15.40;;;8.90;;
44662;SDS011;30381;52.754;18.258;2023-08-31T22:50:03;18.70;;;9.30;;
44662;SDS011;30381;52.754;18.258;2023-08-31T22:52:44;15.90;;;9.20;;
44662;SDS011;30381;52.754;18.258;2023-08-31T22:55:20;19.20;;;9.70;;
44662;SDS011;30381;52.754;18.258;2023-08-31T22:57:49;15.40;;;9.40;;
44662;SDS011;30381;52.754;18.258;2023-08-31T23:00:50;16.30;;;8.50;;
44662;SDS011;30381;52.754;18.258;2023-08-31T23:03:40;14.60;;;8.50;;
44662;SDS011;30381;52.754;18.258;2023-08-31T23:06:30;17.20;;;8.90;;
44662;SDS011;30381;52.754;18.258;2023-08-31T23:09:19;17.50;;;9.10;;
44662;SDS011;30381;52.754;18.258;2023-08-31T23:12:11;19.80;;;9.40;;
44662;SDS011;30381;52.754;18.258;2023-08-31T23:15:12;17.00;;;8.20;;
44662;SDS011;30381;52.754;18.258;2023-08-31T23:17:52;15.60;;;9.10;;
44662;SDS011;30381;52.754;18.258;2023-08-31T23:20:30;17.30;;;9.10;;
44662;SDS011;30381;52.754;18.258;2023-08-31T23:23:26;16.00;;;8.20;;
44662;SDS011;30381;52.754;18.258;2023-08-31T23:25:55;14.90;;;8.50;;
44662;SDS011;30381;52.754;18.258;2023-08-31T23:28:25;14.90;;;8.90;;
44662;SDS011;30381;52.754;18.258;2023-08-31T23:30:51;15.60;;;9.30;;
44662;SDS011;30381;52.754;18.258;2023-08-31T23:33:18;15.60;;;8.40;;
44662;SDS011;30381;52.754;18.258;2023-08-31T23:35:46;15.30;;;8.70;;
44662;SDS011;30381;52.754;18.258;2023-08-31T23:38:38;14.70;;;8.30;;
44662;SDS011;30381;52.754;18.258;2023-08-31T23:41:11;14.80;;;8.20;;
44662;SDS011;30381;52.754;18.258;2023-08-31T23:43:58;16.40;;;8.50;;
44662;SDS011;30381;52.754;18.258;2023-08-31T23:46:28;13.60;;;7.80;;
44662;SDS011;30381;52.754;18.258;2023-08-31T23:48:55;16.10;;;8.20;;
44662;SDS011;30381;52.754;18.258;2023-08-31T23:51:30;17.50;;;9.10;;
44662;SDS011;30381;52.754;18.258;2023-08-31T23:54:04;17.30;;;8.20;;
44662;SDS011;30381;52.754;18.258;2023-08-31T23:56:43;16.80;;;8.30;;
44662;SDS011;30381;52.754;18.258;2023-08-31T23:59:21;16.00;;;8.70;;
